sensor_id;sensor_type;location;lat;lon;timestamp;P1;durP1;ratioP1;P2;durP2;ratioP2
37297;SDS011;30517;51.932;4.278;2023-06-10T00:02:00;5.85;;;4.40;;
37297;SDS011;30517;51.932;4.278;2023-06-10T00:04:41;6.22;;;4.47;;
37297;SDS011;30517;51.932;4.278;2023-06-10T00:07:22;6.40;;;4.25;;
37297;SDS011;30517;51.932;4.278;2023-06-10T00:10:03;6.65;;;4.55;;
37297;SDS011;30517;51.932;4.278;2023-06-10T00:12:46;5.82;;;4.22;;
37297;SDS011;30517;51.932;4.278;2023-06-10T00:15:27;6.07;;;4.45;;
37297;SDS011;30517;51.932;4.278;2023-06-10T00:18:08;6.57;;;4.53;;
37297;SDS011;30517;51.932;4.278;2023-06-10T00:20:50;6.25;;;4.40;;
37297;SDS011;30517;51.932;4.278;2023-06-10T00:23:33;6.25;;;4.47;;
37297;SDS011;30517;51.932;4.278;2023-06-10T00:26:18;6.13;;;4.35;;
37297;SDS011;30517;51.932;4.278;2023-06-10T00:28:59;6.15;;;4.72;;
37297;SDS011;30517;51.932;4.278;2023-06-10T00:31:40;6.13;;;4.00;;
37297;SDS011;30517;51.932;4.278;2023-06-10T00:34:20;7.10;;;4.10;;
37297;SDS011;30517;51.932;4.278;2023-06-10T00:37:01;6.18;;;4.70;;
37297;SDS011;30517;51.932;4.278;2023-06-10T00:39:42;6.72;;;4.85;;
37297;SDS011;30517;51.932;4.278;2023-06-10T00:42:23;6.13;;;4.40;;
37297;SDS011;30517;51.932;4.278;2023-06-10T00:45:04;7.88;;;4.85;;
37297;SDS011;30517;51.932;4.278;2023-06-10T00:47:46;6.63;;;4.80;;
37297;SDS011;30517;51.932;4.278;2023-06-10T00:50:27;6.82;;;4.43;;
37297;SDS011;30517;51.932;4.278;2023-06-10T00:53:08;6.68;;;4.78;;
37297;SDS011;30517;51.932;4.278;2023-06-10T00:55:49;5.85;;;4.72;;
37297;SDS011;30517;51.932;4.278;2023-06-10T00:58:30;6.40;;;4.78;;
37297;SDS011;30517;51.932;4.278;2023-06-10T01:01:11;6.43;;;4.60;;
37297;SDS011;30517;51.932;4.278;2023-06-10T01:03:55;6.32;;;4.65;;
37297;SDS011;30517;51.932;4.278;2023-06-10T01:09:41;7.18;;;5.00;;
37297;SDS011;30517;51.932;4.278;2023-06-10T01:12:44;6.63;;;4.70;;
37297;SDS011;30517;51.932;4.278;2023-06-10T01:15:39;6.18;;;4.45;;
37297;SDS011;30517;51.932;4.278;2023-06-10T01:18:20;6.65;;;4.70;;
37297;SDS011;30517;51.932;4.278;2023-06-10T01:21:01;6.35;;;4.82;;
37297;SDS011;30517;51.932;4.278;2023-06-10T01:23:43;7.57;;;5.00;;
37297;SDS011;30517;51.932;4.278;2023-06-10T01:26:33;6.45;;;4.95;;
37297;SDS011;30517;51.932;4.278;2023-06-10T01:29:17;6.30;;;4.82;;
37297;SDS011;30517;51.932;4.278;2023-06-10T01:32:04;6.25;;;4.40;;
37297;SDS011;30517;51.932;4.278;2023-06-10T01:34:52;6.13;;;4.53;;
37297;SDS011;30517;51.932;4.278;2023-06-10T01:37:35;6.68;;;4.97;;
37297;SDS011;30517;51.932;4.278;2023-06-10T01:40:19;6.18;;;4.90;;
37297;SDS011;30517;51.932;4.278;2023-06-10T01:43:01;7.15;;;4.97;;
37297;SDS011;30517;51.932;4.278;2023-06-10T01:45:42;7.47;;;5.50;;
37297;SDS011;30517;51.932;4.278;2023-06-10T01:48:23;7.22;;;4.85;;
37297;SDS011;30517;51.932;4.278;2023-06-10T01:51:04;6.95;;;5.07;;
37297;SDS011;30517;51.932;4.278;2023-06-10T01:53:45;6.72;;;4.88;;
37297;SDS011;30517;51.932;4.278;2023-06-10T01:56:26;6.03;;;4.88;;
37297;SDS011;30517;51.932;4.278;2023-06-10T01:59:07;7.22;;;5.45;;
37297;SDS011;30517;51.932;4.278;2023-06-10T02:01:48;6.80;;;4.90;;
37297;SDS011;30517;51.932;4.278;2023-06-10T02:04:28;6.75;;;5.10;;
37297;SDS011;30517;51.932;4.278;2023-06-10T02:07:09;7.22;;;5.32;;
37297;SDS011;30517;51.932;4.278;2023-06-10T02:09:55;6.93;;;4.57;;
37297;SDS011;30517;51.932;4.278;2023-06-10T02:12:36;6.20;;;4.60;;
37297;SDS011;30517;51.932;4.278;2023-06-10T02:15:16;7.30;;;4.78;;
37297;SDS011;30517;51.932;4.278;2023-06-10T02:17:58;6.35;;;4.97;;
37297;SDS011;30517;51.932;4.278;2023-06-10T02:20:40;6.95;;;5.00;;
37297;SDS011;30517;51.932;4.278;2023-06-10T02:23:21;7.90;;;4.65;;
37297;SDS011;30517;51.932;4.278;2023-06-10T02:26:02;7.80;;;5.38;;
37297;SDS011;30517;51.932;4.278;2023-06-10T02:28:43;7.03;;;4.60;;
37297;SDS011;30517;51.932;4.278;2023-06-10T02:31:24;6.03;;;4.80;;
37297;SDS011;30517;51.932;4.278;2023-06-10T02:34:05;7.55;;;4.53;;
37297;SDS011;30517;51.932;4.278;2023-06-10T02:36:46;6.57;;;5.10;;
37297;SDS011;30517;51.932;4.278;2023-06-10T02:39:29;6.32;;;4.82;;
37297;SDS011;30517;51.932;4.278;2023-06-10T02:42:09;6.68;;;4.63;;
37297;SDS011;30517;51.932;4.278;2023-06-10T02:44:50;7.72;;;5.72;;
37297;SDS011;30517;51.932;4.278;2023-06-10T02:47:31;6.95;;;4.75;;
37297;SDS011;30517;51.932;4.278;2023-06-10T02:50:12;6.93;;;5.32;;
37297;SDS011;30517;51.932;4.278;2023-06-10T02:52:53;8.00;;;5.20;;
37297;SDS011;30517;51.932;4.278;2023-06-10T02:55:33;6.28;;;4.47;;
37297;SDS011;30517;51.932;4.278;2023-06-10T02:58:15;6.88;;;5.28;;
37297;SDS011;30517;51.932;4.278;2023-06-10T03:00:56;6.63;;;4.85;;
37297;SDS011;30517;51.932;4.278;2023-06-10T03:03:38;7.30;;;5.00;;
37297;SDS011;30517;51.932;4.278;2023-06-10T03:09:04;7.13;;;5.25;;
37297;SDS011;30517;51.932;4.278;2023-06-10T03:11:45;6.80;;;5.03;;
37297;SDS011;30517;51.932;4.278;2023-06-10T03:14:26;6.80;;;5.32;;
37297;SDS011;30517;51.932;4.278;2023-06-10T03:17:06;6.82;;;5.10;;
37297;SDS011;30517;51.932;4.278;2023-06-10T03:19:48;7.07;;;5.25;;
37297;SDS011;30517;51.932;4.278;2023-06-10T03:22:29;7.63;;;5.35;;
37297;SDS011;30517;51.932;4.278;2023-06-10T03:25:10;6.65;;;4.95;;
37297;SDS011;30517;51.932;4.278;2023-06-10T03:27:53;6.90;;;5.00;;
37297;SDS011;30517;51.932;4.278;2023-06-10T03:30:34;6.18;;;4.47;;
37297;SDS011;30517;51.932;4.278;2023-06-10T03:33:15;6.38;;;4.80;;
37297;SDS011;30517;51.932;4.278;2023-06-10T03:35:56;6.88;;;5.05;;
37297;SDS011;30517;51.932;4.278;2023-06-10T03:38:37;7.38;;;5.18;;
37297;SDS011;30517;51.932;4.278;2023-06-10T03:41:17;7.10;;;5.07;;
37297;SDS011;30517;51.932;4.278;2023-06-10T03:43:58;6.55;;;4.72;;
37297;SDS011;30517;51.932;4.278;2023-06-10T03:46:40;6.90;;;5.13;;
37297;SDS011;30517;51.932;4.278;2023-06-10T03:49:21;6.53;;;4.63;;
37297;SDS011;30517;51.932;4.278;2023-06-10T03:52:06;7.32;;;4.97;;
37297;SDS011;30517;51.932;4.278;2023-06-10T03:54:47;6.10;;;4.72;;
37297;SDS011;30517;51.932;4.278;2023-06-10T03:57:28;6.35;;;4.72;;
37297;SDS011;30517;51.932;4.278;2023-06-10T04:00:09;7.03;;;4.50;;
37297;SDS011;30517;51.932;4.278;2023-06-10T04:02:51;7.30;;;4.95;;
37297;SDS011;30517;51.932;4.278;2023-06-10T04:05:32;6.15;;;4.75;;
37297;SDS011;30517;51.932;4.278;2023-06-10T04:08:13;6.65;;;4.63;;
37297;SDS011;30517;51.932;4.278;2023-06-10T04:10:54;7.78;;;4.97;;
37297;SDS011;30517;51.932;4.278;2023-06-10T04:13:36;6.97;;;5.15;;
37297;SDS011;30517;51.932;4.278;2023-06-10T04:16:17;6.78;;;4.85;;
37297;SDS011;30517;51.932;4.278;2023-06-10T04:18:58;6.47;;;4.63;;
37297;SDS011;30517;51.932;4.278;2023-06-10T04:21:40;7.55;;;4.85;;
37297;SDS011;30517;51.932;4.278;2023-06-10T04:24:21;6.88;;;4.97;;
37297;SDS011;30517;51.932;4.278;2023-06-10T04:27:02;6.03;;;4.35;;
37297;SDS011;30517;51.932;4.278;2023-06-10T04:29:43;5.93;;;4.18;;
37297;SDS011;30517;51.932;4.278;2023-06-10T04:32:24;5.72;;;4.30;;
37297;SDS011;30517;51.932;4.278;2023-06-10T04:35:05;7.80;;;4.75;;
37297;SDS011;30517;51.932;4.278;2023-06-10T04:37:47;6.20;;;4.50;;
37297;SDS011;30517;51.932;4.278;2023-06-10T04:40:28;6.28;;;4.35;;
37297;SDS011;30517;51.932;4.278;2023-06-10T04:43:09;6.85;;;4.25;;
37297;SDS011;30517;51.932;4.278;2023-06-10T04:45:50;6.40;;;4.43;;
37297;SDS011;30517;51.932;4.278;2023-06-10T04:48:31;6.65;;;4.53;;
37297;SDS011;30517;51.932;4.278;2023-06-10T04:51:15;7.28;;;4.72;;
37297;SDS011;30517;51.932;4.278;2023-06-10T04:53:56;6.88;;;4.53;;
37297;SDS011;30517;51.932;4.278;2023-06-10T04:56:37;5.72;;;4.15;;
37297;SDS011;30517;51.932;4.278;2023-06-10T04:59:19;6.40;;;4.60;;
37297;SDS011;30517;51.932;4.278;2023-06-10T05:02:00;6.55;;;4.53;;
37297;SDS011;30517;51.932;4.278;2023-06-10T05:04:40;7.07;;;4.72;;
37297;SDS011;30517;51.932;4.278;2023-06-10T05:07:21;7.63;;;4.45;;
37297;SDS011;30517;51.932;4.278;2023-06-10T05:10:02;6.78;;;4.90;;
37297;SDS011;30517;51.932;4.278;2023-06-10T05:12:43;6.65;;;4.45;;
37297;SDS011;30517;51.932;4.278;2023-06-10T05:15:24;6.00;;;3.72;;
37297;SDS011;30517;51.932;4.278;2023-06-10T05:18:04;6.35;;;4.05;;
37297;SDS011;30517;51.932;4.278;2023-06-10T05:20:45;5.93;;;4.05;;
37297;SDS011;30517;51.932;4.278;2023-06-10T05:23:26;7.25;;;4.55;;
37297;SDS011;30517;51.932;4.278;2023-06-10T05:26:07;7.22;;;4.20;;
37297;SDS011;30517;51.932;4.278;2023-06-10T05:28:48;6.72;;;4.30;;
37297;SDS011;30517;51.932;4.278;2023-06-10T05:31:29;5.80;;;3.80;;
37297;SDS011;30517;51.932;4.278;2023-06-10T05:34:09;6.43;;;3.88;;
37297;SDS011;30517;51.932;4.278;2023-06-10T05:36:50;8.18;;;4.00;;
37297;SDS011;30517;51.932;4.278;2023-06-10T05:39:31;4.97;;;3.53;;
37297;SDS011;30517;51.932;4.278;2023-06-10T05:42:13;6.13;;;4.07;;
37297;SDS011;30517;51.932;4.278;2023-06-10T05:44:53;6.47;;;3.80;;
37297;SDS011;30517;51.932;4.278;2023-06-10T05:47:34;6.78;;;3.92;;
37297;SDS011;30517;51.932;4.278;2023-06-10T05:50:15;5.60;;;3.35;;
37297;SDS011;30517;51.932;4.278;2023-06-10T05:52:56;6.85;;;3.83;;
37297;SDS011;30517;51.932;4.278;2023-06-10T05:55:37;6.13;;;4.00;;
37297;SDS011;30517;51.932;4.278;2023-06-10T05:58:18;5.90;;;3.80;;
37297;SDS011;30517;51.932;4.278;2023-06-10T06:00:59;6.15;;;4.03;;
37297;SDS011;30517;51.932;4.278;2023-06-10T06:03:40;6.82;;;3.83;;
37297;SDS011;30517;51.932;4.278;2023-06-10T06:06:21;6.70;;;4.15;;
37297;SDS011;30517;51.932;4.278;2023-06-10T06:09:03;7.50;;;4.10;;
37297;SDS011;30517;51.932;4.278;2023-06-10T06:11:44;6.07;;;4.18;;
37297;SDS011;30517;51.932;4.278;2023-06-10T06:14:25;6.28;;;4.05;;
37297;SDS011;30517;51.932;4.278;2023-06-10T06:17:06;7.22;;;3.92;;
37297;SDS011;30517;51.932;4.278;2023-06-10T06:19:47;7.00;;;3.88;;
37297;SDS011;30517;51.932;4.278;2023-06-10T06:22:28;6.15;;;3.95;;
37297;SDS011;30517;51.932;4.278;2023-06-10T06:25:08;6.13;;;3.83;;
37297;SDS011;30517;51.932;4.278;2023-06-10T06:27:49;6.35;;;3.78;;
37297;SDS011;30517;51.932;4.278;2023-06-10T06:30:30;6.13;;;3.97;;
37297;SDS011;30517;51.932;4.278;2023-06-10T06:33:11;7.35;;;4.10;;
37297;SDS011;30517;51.932;4.278;2023-06-10T06:35:51;6.70;;;4.05;;
37297;SDS011;30517;51.932;4.278;2023-06-10T06:38:32;6.13;;;3.75;;
37297;SDS011;30517;51.932;4.278;2023-06-10T06:41:13;5.95;;;4.20;;
37297;SDS011;30517;51.932;4.278;2023-06-10T06:43:54;5.65;;;3.50;;
37297;SDS011;30517;51.932;4.278;2023-06-10T06:46:35;5.60;;;3.72;;
37297;SDS011;30517;51.932;4.278;2023-06-10T06:49:16;7.18;;;4.07;;
37297;SDS011;30517;51.932;4.278;2023-06-10T06:51:57;5.68;;;3.70;;
37297;SDS011;30517;51.932;4.278;2023-06-10T06:54:38;5.80;;;3.78;;
37297;SDS011;30517;51.932;4.278;2023-06-10T06:57:19;6.05;;;3.60;;
37297;SDS011;30517;51.932;4.278;2023-06-10T07:00:00;7.18;;;3.92;;
37297;SDS011;30517;51.932;4.278;2023-06-10T07:02:40;7.07;;;4.35;;
37297;SDS011;30517;51.932;4.278;2023-06-10T07:05:21;6.35;;;4.30;;
37297;SDS011;30517;51.932;4.278;2023-06-10T07:08:02;5.95;;;3.80;;
37297;SDS011;30517;51.932;4.278;2023-06-10T07:10:43;6.25;;;4.10;;
37297;SDS011;30517;51.932;4.278;2023-06-10T07:13:24;6.15;;;3.78;;
37297;SDS011;30517;51.932;4.278;2023-06-10T07:16:05;8.38;;;3.90;;
37297;SDS011;30517;51.932;4.278;2023-06-10T07:18:45;6.03;;;4.20;;
37297;SDS011;30517;51.932;4.278;2023-06-10T07:21:26;7.05;;;4.15;;
37297;SDS011;30517;51.932;4.278;2023-06-10T07:24:08;5.30;;;3.33;;
37297;SDS011;30517;51.932;4.278;2023-06-10T07:26:50;6.57;;;4.35;;
37297;SDS011;30517;51.932;4.278;2023-06-10T07:29:31;7.32;;;3.92;;
37297;SDS011;30517;51.932;4.278;2023-06-10T07:32:12;7.10;;;3.53;;
37297;SDS011;30517;51.932;4.278;2023-06-10T07:34:55;7.45;;;4.13;;
37297;SDS011;30517;51.932;4.278;2023-06-10T07:37:36;6.15;;;3.70;;
37297;SDS011;30517;51.932;4.278;2023-06-10T07:40:18;6.10;;;3.70;;
37297;SDS011;30517;51.932;4.278;2023-06-10T07:42:59;6.07;;;3.60;;
37297;SDS011;30517;51.932;4.278;2023-06-10T07:45:40;6.35;;;3.95;;
37297;SDS011;30517;51.932;4.278;2023-06-10T07:48:21;7.10;;;4.47;;
37297;SDS011;30517;51.932;4.278;2023-06-10T07:51:02;6.72;;;3.70;;
37297;SDS011;30517;51.932;4.278;2023-06-10T07:53:42;6.22;;;3.83;;
37297;SDS011;30517;51.932;4.278;2023-06-10T07:56:23;6.22;;;3.92;;
37297;SDS011;30517;51.932;4.278;2023-06-10T07:59:05;5.55;;;3.42;;
37297;SDS011;30517;51.932;4.278;2023-06-10T08:01:46;9.98;;;5.03;;
37297;SDS011;30517;51.932;4.278;2023-06-10T08:04:26;10.90;;;5.95;;
37297;SDS011;30517;51.932;4.278;2023-06-10T08:07:07;8.30;;;5.18;;
37297;SDS011;30517;51.932;4.278;2023-06-10T08:09:48;8.23;;;5.05;;
37297;SDS011;30517;51.932;4.278;2023-06-10T08:12:29;10.38;;;5.82;;
37297;SDS011;30517;51.932;4.278;2023-06-10T08:15:10;9.55;;;5.13;;
37297;SDS011;30517;51.932;4.278;2023-06-10T08:17:51;10.13;;;5.25;;
37297;SDS011;30517;51.932;4.278;2023-06-10T08:20:32;8.27;;;5.38;;
37297;SDS011;30517;51.932;4.278;2023-06-10T08:23:13;10.15;;;5.22;;
37297;SDS011;30517;51.932;4.278;2023-06-10T08:25:54;7.82;;;4.90;;
37297;SDS011;30517;51.932;4.278;2023-06-10T08:28:35;7.85;;;4.90;;
37297;SDS011;30517;51.932;4.278;2023-06-10T08:31:16;8.77;;;5.00;;
37297;SDS011;30517;51.932;4.278;2023-06-10T08:33:57;6.68;;;4.28;;
37297;SDS011;30517;51.932;4.278;2023-06-10T08:36:38;8.38;;;5.15;;
37297;SDS011;30517;51.932;4.278;2023-06-10T08:39:19;8.50;;;4.35;;
37297;SDS011;30517;51.932;4.278;2023-06-10T08:44:53;6.82;;;4.50;;
37297;SDS011;30517;51.932;4.278;2023-06-10T08:47:37;9.15;;;4.80;;
37297;SDS011;30517;51.932;4.278;2023-06-10T08:50:22;7.28;;;4.78;;
37297;SDS011;30517;51.932;4.278;2023-06-10T08:53:06;7.72;;;4.38;;
37297;SDS011;30517;51.932;4.278;2023-06-10T08:55:49;7.13;;;4.60;;
37297;SDS011;30517;51.932;4.278;2023-06-10T08:58:34;7.45;;;4.05;;
37297;SDS011;30517;51.932;4.278;2023-06-10T09:01:21;6.95;;;4.50;;
37297;SDS011;30517;51.932;4.278;2023-06-10T09:04:02;6.60;;;4.10;;
37297;SDS011;30517;51.932;4.278;2023-06-10T09:06:43;8.02;;;4.50;;
37297;SDS011;30517;51.932;4.278;2023-06-10T09:09:25;6.55;;;4.53;;
37297;SDS011;30517;51.932;4.278;2023-06-10T09:12:10;7.43;;;4.03;;
37297;SDS011;30517;51.932;4.278;2023-06-10T09:14:53;7.90;;;4.00;;
37297;SDS011;30517;51.932;4.278;2023-06-10T09:17:34;6.38;;;3.80;;
37297;SDS011;30517;51.932;4.278;2023-06-10T09:20:18;6.95;;;4.28;;
37297;SDS011;30517;51.932;4.278;2023-06-10T09:22:59;6.50;;;4.30;;
37297;SDS011;30517;51.932;4.278;2023-06-10T09:25:41;7.45;;;3.92;;
37297;SDS011;30517;51.932;4.278;2023-06-10T09:28:21;7.65;;;4.15;;
37297;SDS011;30517;51.932;4.278;2023-06-10T09:31:03;6.22;;;3.42;;
37297;SDS011;30517;51.932;4.278;2023-06-10T09:33:48;7.53;;;4.30;;
37297;SDS011;30517;51.932;4.278;2023-06-10T09:36:29;6.80;;;3.72;;
37297;SDS011;30517;51.932;4.278;2023-06-10T09:39:15;6.55;;;4.15;;
37297;SDS011;30517;51.932;4.278;2023-06-10T09:41:59;7.47;;;4.05;;
37297;SDS011;30517;51.932;4.278;2023-06-10T09:44:39;6.22;;;3.92;;
37297;SDS011;30517;51.932;4.278;2023-06-10T09:47:20;5.93;;;3.88;;
37297;SDS011;30517;51.932;4.278;2023-06-10T09:50:02;6.22;;;3.67;;
37297;SDS011;30517;51.932;4.278;2023-06-10T09:52:43;5.90;;;3.45;;
37297;SDS011;30517;51.932;4.278;2023-06-10T09:55:27;7.38;;;4.25;;
37297;SDS011;30517;51.932;4.278;2023-06-10T09:58:08;6.53;;;3.85;;
37297;SDS011;30517;51.932;4.278;2023-06-10T10:01:04;6.00;;;3.53;;
37297;SDS011;30517;51.932;4.278;2023-06-10T10:03:55;5.80;;;3.63;;
37297;SDS011;30517;51.932;4.278;2023-06-10T10:06:36;5.95;;;3.55;;
37297;SDS011;30517;51.932;4.278;2023-06-10T10:09:17;8.32;;;5.00;;
37297;SDS011;30517;51.932;4.278;2023-06-10T10:11:58;8.40;;;5.07;;
37297;SDS011;30517;51.932;4.278;2023-06-10T10:14:48;9.25;;;5.35;;
37297;SDS011;30517;51.932;4.278;2023-06-10T10:17:30;8.02;;;5.05;;
37297;SDS011;30517;51.932;4.278;2023-06-10T10:20:13;9.07;;;5.45;;
37297;SDS011;30517;51.932;4.278;2023-06-10T10:22:58;8.27;;;5.15;;
37297;SDS011;30517;51.932;4.278;2023-06-10T10:25:42;7.55;;;4.80;;
37297;SDS011;30517;51.932;4.278;2023-06-10T10:28:24;8.10;;;5.10;;
37297;SDS011;30517;51.932;4.278;2023-06-10T10:31:13;9.13;;;5.13;;
37297;SDS011;30517;51.932;4.278;2023-06-10T10:33:59;7.30;;;5.03;;
37297;SDS011;30517;51.932;4.278;2023-06-10T10:36:41;9.60;;;4.80;;
37297;SDS011;30517;51.932;4.278;2023-06-10T10:39:23;8.35;;;5.15;;
37297;SDS011;30517;51.932;4.278;2023-06-10T10:42:04;7.13;;;4.57;;
37297;SDS011;30517;51.932;4.278;2023-06-10T10:44:49;8.75;;;4.40;;
37297;SDS011;30517;51.932;4.278;2023-06-10T10:47:31;6.45;;;4.30;;
37297;SDS011;30517;51.932;4.278;2023-06-10T10:50:17;6.75;;;4.45;;
37297;SDS011;30517;51.932;4.278;2023-06-10T10:53:01;7.38;;;4.78;;
37297;SDS011;30517;51.932;4.278;2023-06-10T10:55:44;7.55;;;4.60;;
37297;SDS011;30517;51.932;4.278;2023-06-10T10:58:39;6.35;;;4.28;;
37297;SDS011;30517;51.932;4.278;2023-06-10T11:01:19;6.68;;;4.80;;
37297;SDS011;30517;51.932;4.278;2023-06-10T11:04:00;8.85;;;4.55;;
37297;SDS011;30517;51.932;4.278;2023-06-10T11:06:48;7.70;;;4.72;;
37297;SDS011;30517;51.932;4.278;2023-06-10T11:09:33;9.50;;;4.78;;
37297;SDS011;30517;51.932;4.278;2023-06-10T11:12:14;6.85;;;4.65;;
37297;SDS011;30517;51.932;4.278;2023-06-10T11:15:04;5.88;;;4.30;;
37297;SDS011;30517;51.932;4.278;2023-06-10T11:20:55;9.60;;;5.18;;
37297;SDS011;30517;51.932;4.278;2023-06-10T11:23:43;6.55;;;4.72;;
37297;SDS011;30517;51.932;4.278;2023-06-10T11:29:22;8.43;;;5.07;;
37297;SDS011;30517;51.932;4.278;2023-06-10T11:32:03;8.13;;;5.10;;
37297;SDS011;30517;51.932;4.278;2023-06-10T11:34:51;8.18;;;4.90;;
37297;SDS011;30517;51.932;4.278;2023-06-10T11:37:33;9.05;;;5.68;;
37297;SDS011;30517;51.932;4.278;2023-06-10T11:40:14;6.90;;;4.68;;
37297;SDS011;30517;51.932;4.278;2023-06-10T11:42:55;8.70;;;4.63;;
37297;SDS011;30517;51.932;4.278;2023-06-10T11:45:36;8.38;;;4.35;;
37297;SDS011;30517;51.932;4.278;2023-06-10T11:48:17;6.95;;;4.50;;
37297;SDS011;30517;51.932;4.278;2023-06-10T11:50:58;7.13;;;4.97;;
37297;SDS011;30517;51.932;4.278;2023-06-10T11:53:39;7.10;;;4.95;;
37297;SDS011;30517;51.932;4.278;2023-06-10T11:56:20;6.50;;;4.40;;
37297;SDS011;30517;51.932;4.278;2023-06-10T11:59:06;8.27;;;4.78;;
37297;SDS011;30517;51.932;4.278;2023-06-10T12:01:47;6.63;;;4.25;;
37297;SDS011;30517;51.932;4.278;2023-06-10T12:04:28;7.55;;;4.93;;
37297;SDS011;30517;51.932;4.278;2023-06-10T12:07:09;7.63;;;4.80;;
37297;SDS011;30517;51.932;4.278;2023-06-10T12:09:59;6.82;;;4.45;;
37297;SDS011;30517;51.932;4.278;2023-06-10T12:12:40;8.95;;;4.75;;
37297;SDS011;30517;51.932;4.278;2023-06-10T12:15:24;6.78;;;4.70;;
37297;SDS011;30517;51.932;4.278;2023-06-10T12:18:05;7.50;;;3.72;;
37297;SDS011;30517;51.932;4.278;2023-06-10T12:20:46;6.43;;;4.18;;
37297;SDS011;30517;51.932;4.278;2023-06-10T12:23:28;6.70;;;4.30;;
37297;SDS011;30517;51.932;4.278;2023-06-10T12:26:09;7.82;;;4.70;;
37297;SDS011;30517;51.932;4.278;2023-06-10T12:28:50;7.97;;;4.28;;
37297;SDS011;30517;51.932;4.278;2023-06-10T12:31:31;7.15;;;4.38;;
37297;SDS011;30517;51.932;4.278;2023-06-10T12:34:12;6.22;;;4.43;;
37297;SDS011;30517;51.932;4.278;2023-06-10T12:36:53;6.60;;;4.13;;
37297;SDS011;30517;51.932;4.278;2023-06-10T12:39:34;6.50;;;4.45;;
37297;SDS011;30517;51.932;4.278;2023-06-10T12:42:15;6.32;;;4.25;;
37297;SDS011;30517;51.932;4.278;2023-06-10T12:44:56;7.40;;;4.35;;
37297;SDS011;30517;51.932;4.278;2023-06-10T12:47:40;6.68;;;4.47;;
37297;SDS011;30517;51.932;4.278;2023-06-10T12:50:22;6.18;;;4.25;;
37297;SDS011;30517;51.932;4.278;2023-06-10T12:53:03;5.50;;;3.92;;
37297;SDS011;30517;51.932;4.278;2023-06-10T12:55:44;6.15;;;3.90;;
37297;SDS011;30517;51.932;4.278;2023-06-10T12:58:25;6.82;;;4.15;;
37297;SDS011;30517;51.932;4.278;2023-06-10T13:01:06;8.38;;;4.43;;
37297;SDS011;30517;51.932;4.278;2023-06-10T13:03:47;6.70;;;4.07;;
37297;SDS011;30517;51.932;4.278;2023-06-10T13:06:28;6.45;;;4.10;;
37297;SDS011;30517;51.932;4.278;2023-06-10T13:09:09;5.72;;;4.07;;
37297;SDS011;30517;51.932;4.278;2023-06-10T13:11:50;6.15;;;4.05;;
37297;SDS011;30517;51.932;4.278;2023-06-10T13:14:32;5.55;;;3.70;;
37297;SDS011;30517;51.932;4.278;2023-06-10T13:17:13;5.43;;;3.65;;
37297;SDS011;30517;51.932;4.278;2023-06-10T13:19:54;5.55;;;3.83;;
37297;SDS011;30517;51.932;4.278;2023-06-10T13:22:35;5.88;;;3.65;;
37297;SDS011;30517;51.932;4.278;2023-06-10T13:25:16;5.65;;;3.88;;
37297;SDS011;30517;51.932;4.278;2023-06-10T13:27:57;5.78;;;4.05;;
37297;SDS011;30517;51.932;4.278;2023-06-10T13:30:38;6.18;;;3.88;;
37297;SDS011;30517;51.932;4.278;2023-06-10T13:33:19;6.97;;;4.18;;
37297;SDS011;30517;51.932;4.278;2023-06-10T13:36:00;6.63;;;4.25;;
37297;SDS011;30517;51.932;4.278;2023-06-10T13:38:40;6.22;;;4.00;;
37297;SDS011;30517;51.932;4.278;2023-06-10T13:41:21;5.97;;;3.85;;
37297;SDS011;30517;51.932;4.278;2023-06-10T13:44:02;7.05;;;4.00;;
37297;SDS011;30517;51.932;4.278;2023-06-10T13:46:43;5.75;;;3.97;;
37297;SDS011;30517;51.932;4.278;2023-06-10T13:49:23;5.97;;;4.13;;
37297;SDS011;30517;51.932;4.278;2023-06-10T13:52:04;6.38;;;3.90;;
37297;SDS011;30517;51.932;4.278;2023-06-10T13:54:46;5.65;;;3.90;;
37297;SDS011;30517;51.932;4.278;2023-06-10T13:57:26;5.40;;;3.38;;
37297;SDS011;30517;51.932;4.278;2023-06-10T14:00:07;5.32;;;3.55;;
37297;SDS011;30517;51.932;4.278;2023-06-10T14:02:50;6.30;;;4.15;;
37297;SDS011;30517;51.932;4.278;2023-06-10T14:05:30;6.45;;;4.10;;
37297;SDS011;30517;51.932;4.278;2023-06-10T14:08:12;5.57;;;3.75;;
37297;SDS011;30517;51.932;4.278;2023-06-10T14:10:54;5.40;;;3.53;;
37297;SDS011;30517;51.932;4.278;2023-06-10T14:13:35;7.05;;;4.35;;
37297;SDS011;30517;51.932;4.278;2023-06-10T14:16:18;5.22;;;3.50;;
37297;SDS011;30517;51.932;4.278;2023-06-10T14:18:59;5.22;;;3.90;;
37297;SDS011;30517;51.932;4.278;2023-06-10T14:21:40;6.18;;;3.80;;
37297;SDS011;30517;51.932;4.278;2023-06-10T14:24:21;5.57;;;3.92;;
37297;SDS011;30517;51.932;4.278;2023-06-10T14:27:02;5.68;;;3.92;;
37297;SDS011;30517;51.932;4.278;2023-06-10T14:29:43;5.35;;;3.50;;
37297;SDS011;30517;51.932;4.278;2023-06-10T14:32:23;5.38;;;3.42;;
37297;SDS011;30517;51.932;4.278;2023-06-10T14:35:04;5.70;;;3.60;;
37297;SDS011;30517;51.932;4.278;2023-06-10T14:37:45;7.25;;;3.75;;
37297;SDS011;30517;51.932;4.278;2023-06-10T14:40:26;5.75;;;3.72;;
37297;SDS011;30517;51.932;4.278;2023-06-10T14:43:09;6.55;;;3.83;;
37297;SDS011;30517;51.932;4.278;2023-06-10T14:45:50;5.50;;;3.63;;
37297;SDS011;30517;51.932;4.278;2023-06-10T14:48:31;5.60;;;3.40;;
37297;SDS011;30517;51.932;4.278;2023-06-10T14:51:12;5.40;;;3.55;;
37297;SDS011;30517;51.932;4.278;2023-06-10T14:53:52;6.35;;;3.75;;
37297;SDS011;30517;51.932;4.278;2023-06-10T14:56:33;5.72;;;3.50;;
37297;SDS011;30517;51.932;4.278;2023-06-10T14:59:14;5.93;;;3.80;;
37297;SDS011;30517;51.932;4.278;2023-06-10T15:01:55;5.72;;;3.78;;
37297;SDS011;30517;51.932;4.278;2023-06-10T15:04:36;5.70;;;3.40;;
37297;SDS011;30517;51.932;4.278;2023-06-10T15:07:16;5.38;;;3.17;;
37297;SDS011;30517;51.932;4.278;2023-06-10T15:09:57;4.80;;;3.25;;
37297;SDS011;30517;51.932;4.278;2023-06-10T15:12:38;5.43;;;3.58;;
37297;SDS011;30517;51.932;4.278;2023-06-10T15:15:19;5.78;;;3.85;;
37297;SDS011;30517;51.932;4.278;2023-06-10T15:18:00;6.32;;;3.88;;
37297;SDS011;30517;51.932;4.278;2023-06-10T15:20:41;5.32;;;3.60;;
37297;SDS011;30517;51.932;4.278;2023-06-10T15:23:21;6.18;;;3.90;;
37297;SDS011;30517;51.932;4.278;2023-06-10T15:26:02;6.00;;;3.42;;
37297;SDS011;30517;51.932;4.278;2023-06-10T15:28:43;5.63;;;4.00;;
37297;SDS011;30517;51.932;4.278;2023-06-10T15:31:24;6.40;;;4.05;;
37297;SDS011;30517;51.932;4.278;2023-06-10T15:34:04;5.57;;;3.33;;
37297;SDS011;30517;51.932;4.278;2023-06-10T15:36:46;6.70;;;4.15;;
37297;SDS011;30517;51.932;4.278;2023-06-10T15:39:28;8.25;;;4.10;;
37297;SDS011;30517;51.932;4.278;2023-06-10T15:42:10;6.10;;;3.92;;
37297;SDS011;30517;51.932;4.278;2023-06-10T15:44:51;7.43;;;4.47;;
37297;SDS011;30517;51.932;4.278;2023-06-10T15:47:32;8.63;;;4.70;;
37297;SDS011;30517;51.932;4.278;2023-06-10T15:50:13;6.18;;;4.57;;
37297;SDS011;30517;51.932;4.278;2023-06-10T15:52:54;6.95;;;4.30;;
37297;SDS011;30517;51.932;4.278;2023-06-10T15:55:35;6.13;;;3.72;;
37297;SDS011;30517;51.932;4.278;2023-06-10T15:58:15;6.07;;;4.00;;
37297;SDS011;30517;51.932;4.278;2023-06-10T16:00:56;5.63;;;4.00;;
37297;SDS011;30517;51.932;4.278;2023-06-10T16:03:37;6.70;;;3.88;;
37297;SDS011;30517;51.932;4.278;2023-06-10T16:06:18;5.68;;;3.47;;
37297;SDS011;30517;51.932;4.278;2023-06-10T16:08:59;5.70;;;3.95;;
37297;SDS011;30517;51.932;4.278;2023-06-10T16:11:40;6.35;;;3.38;;
37297;SDS011;30517;51.932;4.278;2023-06-10T16:14:20;5.57;;;3.65;;
37297;SDS011;30517;51.932;4.278;2023-06-10T16:17:01;6.13;;;3.50;;
37297;SDS011;30517;51.932;4.278;2023-06-10T16:19:42;5.45;;;3.33;;
37297;SDS011;30517;51.932;4.278;2023-06-10T16:22:23;6.00;;;3.63;;
37297;SDS011;30517;51.932;4.278;2023-06-10T16:25:04;5.40;;;3.70;;
37297;SDS011;30517;51.932;4.278;2023-06-10T16:27:45;5.30;;;3.53;;
37297;SDS011;30517;51.932;4.278;2023-06-10T16:30:26;5.57;;;3.58;;